createdAt,value
2023-01-05T00:00:14.288Z,10.27
2023-01-05T00:01:16.316Z,12.05
2023-01-05T00:02:24.017Z,11.40
2023-01-05T00:03:22.088Z,10.84
2023-01-05T00:04:24.255Z,10.75
2023-01-05T00:05:26.472Z,11.51
2023-01-05T00:06:28.473Z,11.33
2023-01-05T00:07:30.531Z,13.68
2023-01-05T00:08:37.101Z,11.05
2023-01-05T00:09:36.544Z,9.60
2023-01-05T00:10:38.709Z,8.97
2023-01-05T00:11:40.584Z,13.00
2023-01-05T00:12:42.504Z,10.95
2023-01-05T00:13:44.376Z,22.83
2023-01-05T00:14:46.260Z,10.09
2023-01-05T00:15:48.133Z,9.90
2023-01-05T00:16:50.955Z,11.20
2023-01-05T00:17:53.662Z,9.41
2023-01-05T00:18:55.546Z,12.96
2023-01-05T00:19:58.633Z,10.87
2023-01-05T00:21:02.461Z,13.13
2023-01-05T00:22:17.240Z,12.69
2023-01-05T00:23:19.883Z,12.26
2023-01-05T00:24:21.775Z,12.77
2023-01-05T00:25:26.663Z,9.73
2023-01-05T00:26:29.323Z,11.37
2023-01-05T00:27:32.782Z,11.45
2023-01-05T00:28:34.758Z,9.84
2023-01-05T00:29:36.624Z,9.83
2023-01-05T00:30:44.895Z,10.40
2023-01-05T00:31:46.857Z,13.23
2023-01-05T00:32:49.745Z,9.52
2023-01-05T00:33:51.665Z,11.84
2023-01-05T00:34:55.572Z,10.33
2023-01-05T00:35:57.488Z,13.05
2023-01-05T00:36:59.557Z,14.34
2023-01-05T00:38:01.754Z,11.43
2023-01-05T00:39:03.609Z,8.95
2023-01-05T00:40:12.441Z,10.95
2023-01-05T00:41:14.486Z,9.41
2023-01-05T00:42:16.676Z,11.76
2023-01-05T00:43:18.547Z,12.07
2023-01-05T00:44:20.419Z,11.01
2023-01-05T00:45:22.797Z,11.52
2023-01-05T00:46:24.933Z,10.28
2023-01-05T00:47:27.821Z,11.21
2023-01-05T00:48:30.022Z,14.45
2023-01-05T00:49:34.381Z,8.99
2023-01-05T00:50:36.530Z,10.14
2023-01-05T00:51:38.408Z,13.23
2023-01-05T00:52:41.076Z,10.37
2023-01-05T00:53:42.978Z,11.95
2023-01-05T00:54:45.331Z,13.19
2023-01-05T00:55:56.256Z,11.43
2023-01-05T00:56:58.857Z,10.94
2023-01-05T00:58:00.971Z,10.38
2023-01-05T00:59:02.934Z,12.25
2023-01-05T01:00:07.715Z,10.61
2023-01-05T01:01:11.311Z,11.76
2023-01-05T01:02:14.272Z,10.85
2023-01-05T01:03:16.305Z,12.41
2023-01-05T01:04:18.547Z,11.25
2023-01-05T01:05:20.596Z,10.51
2023-01-05T01:06:23.415Z,12.08
2023-01-05T01:07:25.303Z,9.89
2023-01-05T01:08:27.387Z,12.49
2023-01-05T01:09:30.659Z,10.08
2023-01-05T01:10:33.054Z,10.87
2023-01-05T01:11:35.830Z,11.21
2023-01-05T01:12:38.775Z,10.84
2023-01-05T01:13:40.760Z,9.78
2023-01-05T01:14:46.480Z,12.63
2023-01-05T01:15:48.660Z,14.24
2023-01-05T01:16:50.975Z,14.19
2023-01-05T01:17:53.134Z,12.33
2023-01-05T01:18:56.331Z,14.61
2023-01-05T01:20:00.509Z,9.96
2023-01-05T01:21:03.573Z,10.43
2023-01-05T01:22:05.482Z,12.02
2023-01-05T01:23:07.360Z,10.60
2023-01-05T01:24:18.474Z,12.67
2023-01-05T01:25:20.485Z,10.29
2023-01-05T01:26:22.994Z,11.19
2023-01-05T01:27:24.871Z,11.29
2023-01-05T01:28:26.749Z,10.05
2023-01-05T01:29:28.899Z,11.32
2023-01-05T01:30:31.458Z,10.64
2023-01-05T01:31:34.303Z,11.63
2023-01-05T01:32:36.282Z,10.71
2023-01-05T01:33:38.979Z,9.93
2023-01-05T01:35:43.003Z,13.16
2023-01-05T01:36:46.397Z,14.73
2023-01-05T01:37:48.299Z,14.72
2023-01-05T01:38:50.170Z,12.01
2023-01-05T01:39:52.105Z,11.73
2023-01-05T01:40:54.733Z,10.28
2023-01-05T01:41:56.721Z,11.62
2023-01-05T01:42:58.688Z,11.73
2023-01-05T01:44:00.708Z,13.06
2023-01-05T01:45:15.498Z,13.35
2023-01-05T01:46:20.191Z,11.44
2023-01-05T01:48:54.449Z,10.94
2023-01-05T01:50:00.236Z,11.21
2023-01-05T01:51:08.883Z,12.28
2023-01-05T01:52:11.383Z,11.06
2023-01-05T01:53:17.057Z,13.84
2023-01-05T01:54:19.091Z,12.78
2023-01-05T01:55:22.082Z,12.02
2023-01-05T01:56:29.023Z,10.42
2023-01-05T01:57:32.953Z,10.71
2023-01-05T01:58:35.317Z,10.36
2023-01-05T01:59:37.394Z,13.06
2023-01-05T02:00:40.680Z,11.51
2023-01-05T02:01:42.880Z,10.10
2023-01-05T02:02:48.245Z,12.48
2023-01-05T02:03:50.625Z,11.27
2023-01-05T02:04:54.634Z,9.71
2023-01-05T02:05:57.854Z,10.56
2023-01-05T02:07:02.262Z,13.13
2023-01-05T02:08:07.987Z,11.32
2023-01-05T02:09:10.135Z,13.19
2023-01-05T02:10:14.997Z,10.56
2023-01-05T02:11:23.735Z,13.21
2023-01-05T02:14:25.819Z,12.28
2023-01-05T02:15:40.446Z,9.43
2023-01-05T02:19:38.249Z,11.20
2023-01-05T02:20:59.405Z,10.91
2023-01-05T02:22:20.707Z,10.93
2023-01-05T02:23:52.463Z,10.06
2023-01-05T02:25:18.348Z,12.12
2023-01-05T02:26:39.470Z,14.91
2023-01-05T02:28:00.274Z,11.86
2023-01-05T02:29:36.700Z,12.29
2023-01-05T02:30:48.153Z,13.39
2023-01-05T02:32:11.929Z,12.56
2023-01-05T02:33:38.590Z,13.01
2023-01-05T02:35:01.233Z,13.14
2023-01-05T02:36:07.940Z,12.27
2023-01-05T02:37:16.371Z,11.08
2023-01-05T02:38:34.129Z,11.13
2023-01-05T02:39:52.316Z,11.16
2023-01-05T02:40:58.092Z,11.26
2023-01-05T02:42:09.595Z,14.72
2023-01-05T02:44:17.648Z,14.04
2023-01-05T02:45:21.677Z,10.74
2023-01-05T02:46:24.072Z,12.14
2023-01-05T02:47:30.095Z,11.45
2023-01-05T02:48:33.898Z,10.24
2023-01-05T02:49:39.916Z,10.78
2023-01-05T02:50:55.177Z,11.28
2023-01-05T02:51:59.486Z,10.87
2023-01-05T02:53:20.157Z,9.39
2023-01-05T02:54:32.147Z,11.22
2023-01-05T02:58:06.922Z,11.54
2023-01-05T02:59:18.696Z,10.38
2023-01-05T03:00:27.977Z,12.56
2023-01-05T03:01:34.657Z,10.34
2023-01-05T03:02:41.117Z,13.27
2023-01-05T03:03:56.320Z,12.72
2023-01-05T03:05:02.069Z,10.06
2023-01-05T03:06:11.016Z,11.64
2023-01-05T03:07:20.402Z,12.84
2023-01-05T03:08:30.584Z,12.66
2023-01-05T03:09:31.756Z,11.01
2023-01-05T03:13:14.009Z,12.07
2023-01-05T03:14:19.715Z,11.14
2023-01-05T03:15:28.265Z,12.57
2023-01-05T03:16:34.139Z,13.34
2023-01-05T03:17:45.727Z,12.26
2023-01-05T03:18:51.488Z,11.51
2023-01-05T03:19:56.421Z,13.86
2023-01-05T03:21:00.329Z,13.44
2023-01-05T03:22:15.324Z,13.95
2023-01-05T03:23:19.732Z,15.11
2023-01-05T03:24:22.023Z,13.11
2023-01-05T03:25:25.983Z,11.41
2023-01-05T03:26:28.479Z,15.56
2023-01-05T03:27:31.745Z,18.53
2023-01-05T03:28:37.423Z,17.46
2023-01-05T03:29:39.363Z,16.87
2023-01-05T03:31:05.328Z,13.18
2023-01-05T03:32:23.017Z,12.18
2023-01-05T03:33:31.670Z,13.07
2023-01-05T03:34:43.560Z,15.21
2023-01-05T03:35:49.913Z,11.24
2023-01-05T03:37:02.477Z,15.16
2023-01-05T03:38:08.197Z,13.07
2023-01-05T03:39:13.960Z,13.23
2023-01-05T03:40:20.164Z,13.68
2023-01-05T03:41:23.497Z,14.44
2023-01-05T03:42:27.900Z,14.57
2023-01-05T03:43:35.587Z,19.13
2023-01-05T03:44:39.651Z,15.08
2023-01-05T03:45:52.463Z,14.55
2023-01-05T03:46:55.948Z,15.13
2023-01-05T03:47:58.065Z,15.30
2023-01-05T03:49:01.000Z,14.45
2023-01-05T03:50:03.867Z,15.51
2023-01-05T03:51:06.912Z,14.89
2023-01-05T03:52:09.185Z,14.34
2023-01-05T03:53:11.390Z,15.67
2023-01-05T03:54:13.302Z,15.50
2023-01-05T03:55:16.022Z,20.25
2023-01-05T03:56:18.743Z,15.76
2023-01-05T03:57:20.633Z,17.49
2023-01-05T03:58:22.713Z,16.24
2023-01-05T03:59:24.836Z,16.57
2023-01-05T04:00:26.959Z,17.79
2023-01-05T04:01:29.202Z,17.16
2023-01-05T04:02:31.547Z,18.45
2023-01-05T04:03:33.867Z,17.29
2023-01-05T04:04:35.988Z,20.37
2023-01-05T04:05:37.884Z,17.35
2023-01-05T04:06:40.886Z,17.70
2023-01-05T04:07:43.259Z,17.81
2023-01-05T04:08:45.327Z,23.45
2023-01-05T04:09:47.368Z,19.29
2023-01-05T04:10:52.420Z,21.34
2023-01-05T04:11:54.458Z,19.28
2023-01-05T04:12:56.573Z,21.29
2023-01-05T04:13:58.658Z,19.35
2023-01-05T04:15:00.559Z,22.00
2023-01-05T04:16:03.354Z,18.35
2023-01-05T04:17:05.514Z,18.99
2023-01-05T04:18:07.692Z,21.09
2023-01-05T04:19:11.202Z,20.08
2023-01-05T04:20:13.739Z,21.49
2023-01-05T04:21:16.337Z,19.74
2023-01-05T04:22:23.677Z,21.48
2023-01-05T04:23:22.163Z,21.46
2023-01-05T04:24:24.028Z,20.89
2023-01-05T04:25:26.015Z,24.11
2023-01-05T04:26:28.229Z,24.23
2023-01-05T04:27:30.206Z,26.81
2023-01-05T04:28:32.669Z,22.05
2023-01-05T04:29:34.753Z,27.58
2023-01-05T04:30:36.836Z,22.33
2023-01-05T04:31:39.076Z,22.66
2023-01-05T04:32:41.194Z,22.45
2023-01-05T04:33:43.175Z,22.39
2023-01-05T04:34:45.945Z,23.71
2023-01-05T04:35:47.848Z,24.92
2023-01-05T04:36:49.902Z,25.21
2023-01-05T04:37:51.818Z,28.53
2023-01-05T04:38:53.844Z,31.67
2023-01-05T04:39:55.706Z,27.06
2023-01-05T04:40:57.671Z,29.05
2023-01-05T04:41:59.748Z,30.40
2023-01-05T04:43:01.847Z,32.40
2023-01-05T04:44:04.945Z,30.19
2023-01-05T04:45:08.251Z,31.61
2023-01-05T04:46:10.927Z,33.67
2023-01-05T04:47:12.955Z,30.55
2023-01-05T04:48:16.498Z,34.28
2023-01-05T04:49:18.637Z,34.09
2023-01-05T04:50:21.933Z,32.75
2023-01-05T04:51:25.539Z,32.12
2023-01-05T04:52:27.855Z,31.85
2023-01-05T04:53:30.036Z,34.47
2023-01-05T04:54:31.895Z,27.75
2023-01-05T04:55:33.807Z,27.75
2023-01-05T04:56:36.910Z,28.26
2023-01-05T04:57:38.937Z,30.16
2023-01-05T04:58:40.832Z,35.97
2023-01-05T04:59:42.987Z,31.61
2023-01-05T05:00:45.862Z,27.94
2023-01-05T05:01:47.893Z,30.58
2023-01-05T05:02:50.558Z,33.95
2023-01-05T05:03:53.189Z,34.49
2023-01-05T05:04:55.472Z,30.17
2023-01-05T05:05:57.611Z,27.13
2023-01-05T05:06:59.685Z,27.89
2023-01-05T05:08:01.699Z,28.11
2023-01-05T05:09:03.937Z,26.85
2023-01-05T05:10:07.662Z,29.37
2023-01-05T05:11:09.564Z,24.87
2023-01-05T05:12:11.854Z,28.87
2023-01-05T05:13:14.093Z,25.01
2023-01-05T05:14:16.559Z,28.61
2023-01-05T05:15:19.945Z,27.75
2023-01-05T05:16:22.346Z,28.46
2023-01-05T05:17:24.745Z,32.13
2023-01-05T05:18:26.767Z,27.89
2023-01-05T05:19:28.654Z,28.52
2023-01-05T05:20:31.651Z,27.36
2023-01-05T05:21:33.687Z,29.44
2023-01-05T05:22:35.680Z,26.26
2023-01-05T05:23:37.762Z,31.70
2023-01-05T05:24:40.045Z,30.31
2023-01-05T05:25:42.191Z,33.32
2023-01-05T05:26:44.399Z,34.88
2023-01-05T05:27:46.391Z,34.12
2023-01-05T05:28:48.289Z,31.87
2023-01-05T05:29:50.200Z,33.33
2023-01-05T05:30:52.460Z,31.49
2023-01-05T05:31:54.466Z,34.03
2023-01-05T05:32:56.630Z,30.55
2023-01-05T05:33:58.701Z,27.33
2023-01-05T05:35:00.609Z,29.83
2023-01-05T05:36:03.458Z,31.07
2023-01-05T05:37:05.983Z,33.16
2023-01-05T05:38:08.477Z,32.80
2023-01-05T05:39:14.760Z,32.77
2023-01-05T05:40:17.682Z,32.67
2023-01-05T05:41:19.575Z,32.05
2023-01-05T05:42:21.457Z,30.35
2023-01-05T05:43:23.599Z,30.38
2023-01-05T05:44:25.666Z,31.35
2023-01-05T05:45:27.681Z,28.69
2023-01-05T05:46:30.698Z,30.80
2023-01-05T05:47:33.996Z,30.84
2023-01-05T05:48:36.563Z,33.68
2023-01-05T05:49:38.821Z,31.43
2023-01-05T05:50:40.938Z,29.80
2023-01-05T05:51:43.091Z,31.35
2023-01-05T05:52:45.197Z,29.71
2023-01-05T05:53:47.707Z,29.48
2023-01-05T05:54:49.913Z,29.41
2023-01-05T05:55:51.824Z,28.67
2023-01-05T05:56:54.006Z,31.83
2023-01-05T05:57:55.975Z,38.28
2023-01-05T05:59:01.623Z,31.43
2023-01-05T06:00:04.398Z,33.91
2023-01-05T06:01:07.120Z,35.45
2023-01-05T06:02:09.616Z,31.40
2023-01-05T06:03:14.330Z,29.02
2023-01-05T06:04:16.392Z,30.28
2023-01-05T06:05:18.606Z,34.39
2023-01-05T06:06:20.880Z,29.08
2023-01-05T06:07:22.946Z,32.11
2023-01-05T06:08:25.145Z,35.93
2023-01-05T06:09:27.194Z,31.41
2023-01-05T06:10:30.812Z,34.45
2023-01-05T06:11:33.056Z,35.42
2023-01-05T06:12:35.304Z,33.93
2023-01-05T06:13:37.972Z,34.63
2023-01-05T06:14:39.951Z,32.56
2023-01-05T06:15:42.796Z,34.98
2023-01-05T06:16:44.896Z,28.01
2023-01-05T06:17:47.309Z,31.22
2023-01-05T06:18:51.197Z,33.75
2023-01-05T06:19:55.531Z,33.39
2023-01-05T06:21:01.709Z,32.74
2023-01-05T06:22:02.675Z,34.53
2023-01-05T06:23:05.740Z,37.49
2023-01-05T06:24:07.776Z,33.13
2023-01-05T06:25:10.931Z,36.60
2023-01-05T06:26:15.156Z,38.90
2023-01-05T06:27:17.058Z,38.81
2023-01-05T06:28:20.616Z,37.13
2023-01-05T06:29:22.874Z,34.48
2023-01-05T06:30:25.953Z,32.49
2023-01-05T06:31:28.278Z,34.64
2023-01-05T06:32:30.634Z,31.46
2023-01-05T06:33:32.769Z,37.57
2023-01-05T06:34:35.059Z,40.67
2023-01-05T06:35:38.769Z,39.00
2023-01-05T06:36:40.970Z,41.65
2023-01-05T06:37:43.510Z,33.57
2023-01-05T06:38:45.382Z,33.71
2023-01-05T06:39:47.351Z,31.91
2023-01-05T06:40:49.595Z,34.69
2023-01-05T06:41:51.465Z,37.35
2023-01-05T06:42:53.358Z,36.78
2023-01-05T06:43:56.085Z,34.29
2023-01-05T06:44:58.082Z,34.71
2023-01-05T06:45:59.998Z,39.67
2023-01-05T06:47:02.538Z,29.31
2023-01-05T06:48:05.364Z,29.39
2023-01-05T06:49:09.153Z,29.51
2023-01-05T06:50:11.659Z,32.21
2023-01-05T06:51:13.643Z,29.62
2023-01-05T06:52:16.847Z,31.21
2023-01-05T06:53:19.427Z,31.48
2023-01-05T06:54:21.419Z,29.57
2023-01-05T06:55:23.605Z,30.41
2023-01-05T06:56:25.871Z,31.12
2023-01-05T06:57:27.750Z,25.91
2023-01-05T06:58:29.624Z,24.43
2023-01-05T06:59:32.301Z,26.03
2023-01-05T07:00:34.533Z,28.64
2023-01-05T07:01:38.830Z,23.92
2023-01-05T07:02:41.472Z,25.98
2023-01-05T07:03:43.401Z,23.98
2023-01-05T07:04:45.378Z,24.84
2023-01-05T07:05:47.256Z,24.33
2023-01-05T07:06:49.334Z,26.10
2023-01-05T07:07:51.407Z,26.39
2023-01-05T07:08:53.400Z,24.86
2023-01-05T07:09:55.783Z,25.69
2023-01-05T07:10:57.869Z,24.19
2023-01-05T07:11:59.738Z,24.38
2023-01-05T07:13:01.794Z,24.31
2023-01-05T07:14:04.086Z,25.49
2023-01-05T07:15:07.280Z,24.25
2023-01-05T07:16:10.360Z,23.61
2023-01-05T07:17:13.316Z,25.59
2023-01-05T07:18:16.048Z,25.79
2023-01-05T07:19:18.269Z,22.61
2023-01-05T07:20:21.246Z,21.40
2023-01-05T07:21:23.475Z,24.73
2023-01-05T07:22:25.346Z,22.62
2023-01-05T07:23:29.318Z,22.31
2023-01-05T07:24:32.359Z,25.71
2023-01-05T07:25:34.593Z,25.46
2023-01-05T07:26:37.030Z,28.17
2023-01-05T07:27:38.965Z,25.24
2023-01-05T07:28:41.346Z,23.93
2023-01-05T07:29:44.200Z,23.86
2023-01-05T07:30:52.798Z,24.02
2023-01-05T07:31:55.004Z,25.68
2023-01-05T07:34:28.696Z,24.25
2023-01-05T07:35:32.383Z,25.49
2023-01-05T07:36:34.749Z,22.08
2023-01-05T07:37:36.624Z,23.27
2023-01-05T07:38:38.522Z,21.85
2023-01-05T07:39:40.507Z,22.42
2023-01-05T07:40:42.993Z,22.73
2023-01-05T07:41:45.529Z,22.87
2023-01-05T07:42:54.143Z,25.59
2023-01-05T07:43:56.315Z,22.64
2023-01-05T07:44:58.202Z,23.75
2023-01-05T07:48:23.393Z,23.17
2023-01-05T07:49:22.346Z,24.84
2023-01-05T07:50:24.953Z,24.77
2023-01-05T07:51:27.211Z,22.16
2023-01-05T07:52:29.391Z,27.33
2023-01-05T07:53:38.090Z,22.81
2023-01-05T07:54:37.174Z,24.06
2023-01-05T07:55:39.104Z,23.03
2023-01-05T07:56:41.589Z,24.51
2023-01-05T07:57:43.706Z,24.33
2023-01-05T07:58:46.597Z,24.15
2023-01-05T07:59:48.609Z,22.30
2023-01-05T08:00:52.541Z,22.43
2023-01-05T08:01:54.676Z,21.62
2023-01-05T08:02:56.832Z,24.55
2023-01-05T08:03:59.010Z,26.65
2023-01-05T08:05:01.348Z,25.18
2023-01-05T08:06:12.244Z,22.53
2023-01-05T08:07:14.595Z,21.28
2023-01-05T08:08:23.894Z,21.41
2023-01-05T08:09:21.375Z,19.76
2023-01-05T08:10:23.498Z,23.27
2023-01-05T08:11:25.499Z,23.47
2023-01-05T08:12:28.343Z,20.86
2023-01-05T08:13:30.914Z,23.11
2023-01-05T08:14:32.864Z,23.02
2023-01-05T08:15:36.855Z,24.33
2023-01-05T08:16:39.299Z,22.18
2023-01-05T08:17:42.409Z,23.93
2023-01-05T08:18:44.684Z,25.23
2023-01-05T08:19:46.661Z,23.64
2023-01-05T08:20:55.204Z,20.51
2023-01-05T08:21:57.237Z,23.08
2023-01-05T08:22:59.111Z,24.47
2023-01-05T08:24:01.758Z,21.43
2023-01-05T08:25:04.939Z,19.98
2023-01-05T08:26:11.021Z,23.11
2023-01-05T08:27:13.358Z,19.42
2023-01-05T08:28:16.143Z,19.71
2023-01-05T08:29:18.178Z,18.42
2023-01-05T08:30:20.610Z,18.50
2023-01-05T08:31:25.794Z,20.28
2023-01-05T08:32:28.214Z,17.92
2023-01-05T08:33:30.606Z,21.12
2023-01-05T08:34:35.016Z,20.87
2023-01-05T08:35:41.547Z,17.33
2023-01-05T08:36:43.730Z,19.27
2023-01-05T08:37:45.640Z,19.00
2023-01-05T08:38:49.941Z,20.43
2023-01-05T08:39:51.875Z,19.35
2023-01-05T08:40:57.264Z,21.09
2023-01-05T08:42:02.730Z,21.67
2023-01-05T08:43:04.443Z,22.00
2023-01-05T08:44:09.456Z,21.09
2023-01-05T08:45:11.368Z,21.47
2023-01-05T08:46:13.682Z,20.66
2023-01-05T08:47:18.261Z,22.97
2023-01-05T08:48:19.660Z,25.98
2023-01-05T08:49:21.893Z,22.09
2023-01-05T08:50:24.441Z,22.45
2023-01-05T08:51:27.503Z,24.89
2023-01-05T08:52:29.848Z,24.78
2023-01-05T08:53:31.752Z,21.83
2023-01-05T08:54:34.896Z,23.57
2023-01-05T08:55:37.345Z,21.94
2023-01-05T08:56:40.463Z,22.23
2023-01-05T08:57:42.548Z,23.61
2023-01-05T08:58:44.728Z,20.51
2023-01-05T08:59:47.088Z,22.15
2023-01-05T09:00:49.162Z,22.34
2023-01-05T09:01:52.471Z,20.23
2023-01-05T09:02:55.025Z,22.62
2023-01-05T09:03:57.251Z,20.19
2023-01-05T09:04:59.210Z,18.01
2023-01-05T09:06:01.348Z,19.88
2023-01-05T09:07:03.937Z,21.21
2023-01-05T09:08:05.876Z,21.79
2023-01-05T09:09:07.982Z,20.00
2023-01-05T09:10:10.741Z,20.93
2023-01-05T09:11:15.903Z,21.59
2023-01-05T09:12:17.989Z,21.37
2023-01-05T09:13:20.468Z,19.17
2023-01-05T09:14:22.446Z,20.49
2023-01-05T09:15:24.317Z,16.87
2023-01-05T09:17:34.265Z,17.81
2023-01-05T09:18:39.088Z,17.74
2023-01-05T09:19:41.085Z,19.03
2023-01-05T09:20:43.254Z,19.83
2023-01-05T09:21:46.132Z,18.65
2023-01-05T09:22:48.110Z,16.85
2023-01-05T09:23:51.138Z,24.28
2023-01-05T09:24:53.100Z,17.86
2023-01-05T09:25:55.023Z,18.41
2023-01-05T09:26:58.137Z,16.49
2023-01-05T09:28:01.420Z,16.01
2023-01-05T09:29:03.787Z,16.32
2023-01-05T09:30:08.643Z,15.93
2023-01-05T09:31:19.837Z,21.06
2023-01-05T09:32:23.363Z,15.39
2023-01-05T09:33:25.847Z,16.14
2023-01-05T09:34:29.102Z,20.27
2023-01-05T09:35:31.895Z,16.71
2023-01-05T09:36:34.002Z,19.51
2023-01-05T09:37:35.884Z,18.85
2023-01-05T09:38:42.060Z,18.93
2023-01-05T09:39:41.741Z,17.52
2023-01-05T09:40:44.147Z,19.80
2023-01-05T09:41:49.823Z,16.04
2023-01-05T09:42:53.761Z,17.36
2023-01-05T09:44:01.975Z,17.46
2023-01-05T09:45:06.427Z,15.03
2023-01-05T09:46:15.496Z,15.46
2023-01-05T09:47:30.351Z,17.97
2023-01-05T09:48:41.945Z,16.24
2023-01-05T09:49:47.403Z,17.03
2023-01-05T09:50:51.340Z,17.69
2023-01-05T09:52:06.755Z,18.44
2023-01-05T09:53:11.292Z,15.69
2023-01-05T09:54:16.675Z,15.38
2023-01-05T09:55:22.230Z,20.77
2023-01-05T09:57:07.847Z,15.61
2023-01-05T09:57:39.866Z,16.00
2023-01-05T09:58:45.089Z,18.80
2023-01-05T09:59:53.622Z,16.23
2023-01-05T10:01:08.746Z,19.28
2023-01-05T10:02:23.720Z,18.36
2023-01-05T10:04:33.297Z,15.73
2023-01-05T10:05:39.337Z,17.03
2023-01-05T10:06:50.082Z,15.50
2023-01-05T10:08:04.650Z,15.62
2023-01-05T10:09:07.780Z,15.61
2023-01-05T10:10:33.359Z,13.91
2023-01-05T10:11:57.495Z,14.39
2023-01-05T10:13:02.478Z,16.73
2023-01-05T10:14:08.284Z,16.93
2023-01-05T10:15:13.966Z,17.54
2023-01-05T10:16:17.302Z,19.48
2023-01-05T10:18:30.448Z,17.17
2023-01-05T10:19:32.610Z,17.47
2023-01-05T10:20:41.468Z,15.81
2023-01-05T10:22:07.288Z,15.83
2023-01-05T10:23:29.992Z,17.48
2023-01-05T10:26:01.120Z,20.86
2023-01-05T10:27:26.444Z,16.37
2023-01-05T10:28:17.338Z,16.93
2023-01-05T10:29:23.120Z,15.48
2023-01-05T10:30:28.524Z,16.24
2023-01-05T10:31:53.621Z,16.27
2023-01-05T10:34:24.390Z,16.25
2023-01-05T10:36:00.642Z,17.66
2023-01-05T10:37:20.337Z,16.23
2023-01-05T10:38:35.179Z,16.96
2023-01-05T10:39:44.007Z,14.48
2023-01-05T10:40:49.906Z,17.12
2023-01-05T10:42:01.427Z,17.41
2023-01-05T10:44:28.072Z,15.41
2023-01-05T10:45:31.248Z,18.42
2023-01-05T10:46:42.654Z,15.27
2023-01-05T10:47:42.529Z,16.70
2023-01-05T10:48:44.790Z,15.00
2023-01-05T10:49:47.175Z,18.67
2023-01-05T10:50:52.596Z,15.99
2023-01-05T10:51:59.484Z,17.55
2023-01-05T10:53:11.440Z,16.99
2023-01-05T10:54:20.199Z,18.52
2023-01-05T10:55:23.899Z,17.06
2023-01-05T10:56:26.645Z,17.12
2023-01-05T10:57:36.873Z,14.40
2023-01-05T11:00:16.603Z,17.07
2023-01-05T11:01:22.698Z,15.20
2023-01-05T11:02:28.318Z,14.24
2023-01-05T11:04:49.489Z,17.05
2023-01-05T11:05:51.798Z,17.46
2023-01-05T11:06:57.539Z,18.25
2023-01-05T11:08:03.136Z,14.77
2023-01-05T11:09:08.432Z,17.14
2023-01-05T11:10:27.247Z,14.26
2023-01-05T11:11:29.408Z,14.39
2023-01-05T11:12:31.562Z,14.23
2023-01-05T11:13:37.031Z,14.55
2023-01-05T11:14:44.908Z,13.89
2023-01-05T11:15:50.618Z,15.63
2023-01-05T11:16:57.433Z,14.55
2023-01-05T11:17:59.651Z,13.68
2023-01-05T11:19:04.954Z,14.62
2023-01-05T11:20:11.067Z,16.20
2023-01-05T11:21:17.053Z,13.38
2023-01-05T11:22:37.522Z,14.46
2023-01-05T11:23:45.517Z,11.59
2023-01-05T11:24:47.742Z,14.47
2023-01-05T11:25:49.644Z,12.69
2023-01-05T11:26:54.825Z,10.84
2023-01-05T11:30:17.895Z,12.88
2023-01-05T11:31:20.825Z,9.78
2023-01-05T11:32:23.680Z,11.03
2023-01-05T11:33:28.589Z,10.51
2023-01-05T11:34:46.376Z,12.08
2023-01-05T11:35:48.690Z,12.64
2023-01-05T11:37:07.413Z,10.87
2023-01-05T11:38:05.431Z,9.48
2023-01-05T11:39:11.101Z,10.68
2023-01-05T11:40:17.367Z,11.51
2023-01-05T11:41:22.255Z,9.64
2023-01-05T11:42:28.465Z,9.33
2023-01-05T11:43:32.245Z,9.46
2023-01-05T11:44:35.657Z,8.26
2023-01-05T11:45:40.853Z,11.33
2023-01-05T11:46:43.734Z,9.76
2023-01-05T11:47:51.963Z,10.62
2023-01-05T11:48:56.843Z,9.31
2023-01-05T11:50:09.521Z,8.48
2023-01-05T11:51:14.444Z,10.28
2023-01-05T11:52:29.137Z,9.26
2023-01-05T11:53:34.911Z,8.89
2023-01-05T11:54:37.177Z,10.47
2023-01-05T11:55:39.209Z,8.03
2023-01-05T11:56:41.440Z,9.01
2023-01-05T11:57:43.384Z,8.65
2023-01-05T11:58:51.961Z,7.99
2023-01-05T11:59:54.228Z,7.41
2023-01-05T12:01:22.848Z,8.05
2023-01-05T12:02:31.941Z,13.41
2023-01-05T12:04:00.415Z,8.65
2023-01-05T12:05:08.732Z,10.41
2023-01-05T12:06:31.767Z,9.99
2023-01-05T12:07:36.666Z,12.08
2023-01-05T12:08:58.172Z,10.66
2023-01-05T12:10:30.606Z,11.67
2023-01-05T12:12:56.475Z,10.57
2023-01-05T12:14:14.923Z,9.14
2023-01-05T12:15:43.523Z,8.46
2023-01-05T12:16:54.893Z,12.35
2023-01-05T12:18:06.663Z,9.14
2023-01-05T12:19:18.528Z,13.67
2023-01-05T12:20:46.952Z,10.06
2023-01-05T12:22:00.591Z,9.64
2023-01-05T12:23:34.198Z,9.52
2023-01-05T12:25:01.036Z,11.57
2023-01-05T12:26:30.999Z,10.48
2023-01-05T12:28:01.737Z,13.66
2023-01-05T12:34:46.455Z,10.83
2023-01-05T12:35:55.393Z,10.85
2023-01-05T12:37:07.454Z,10.27
2023-01-05T12:38:48.664Z,11.39
2023-01-05T12:40:09.699Z,11.23
2023-01-05T12:41:31.026Z,10.02
2023-01-05T12:42:40.008Z,10.61
2023-01-05T12:44:05.634Z,8.87
2023-01-05T12:45:20.646Z,9.21
2023-01-05T12:46:29.263Z,8.78
2023-01-05T12:47:50.278Z,11.06
2023-01-05T12:51:28.229Z,10.53
2023-01-05T12:52:36.836Z,11.06
2023-01-05T12:53:51.914Z,11.11
2023-01-05T12:55:06.188Z,9.02
2023-01-05T12:57:35.733Z,9.29
2023-01-05T12:58:41.403Z,9.59
2023-01-05T12:59:50.042Z,8.74
2023-01-05T13:00:55.647Z,7.09
2023-01-05T13:02:16.463Z,7.98
2023-01-05T13:03:31.222Z,9.28
2023-01-05T13:04:48.473Z,7.11
2023-01-05T13:05:56.552Z,6.82
2023-01-05T13:07:01.704Z,7.72
2023-01-05T13:08:16.575Z,7.08
2023-01-05T13:09:23.740Z,7.62
2023-01-05T13:10:50.839Z,8.52
2023-01-05T13:11:59.371Z,8.39
2023-01-05T13:13:05.096Z,6.02
2023-01-05T13:14:19.544Z,9.89
2023-01-05T13:15:28.903Z,7.84
2023-01-05T13:16:51.680Z,7.33
2023-01-05T13:17:58.746Z,8.06
2023-01-05T13:19:10.791Z,6.71
2023-01-05T13:20:29.086Z,7.20
2023-01-05T13:21:32.530Z,6.20
2023-01-05T13:22:38.781Z,7.25
2023-01-05T13:23:44.632Z,7.24
2023-01-05T13:24:53.132Z,6.14
2023-01-05T13:26:16.905Z,6.68
2023-01-05T13:27:18.960Z,6.98
2023-01-05T13:28:24.532Z,6.93
2023-01-05T13:31:29.810Z,7.79
2023-01-05T13:33:59.647Z,7.11
2023-01-05T13:35:34.682Z,7.05
2023-01-05T13:37:08.095Z,6.72
2023-01-05T13:39:47.025Z,6.54
2023-01-05T13:40:58.833Z,5.03
2023-01-05T13:43:34.225Z,8.64
2023-01-05T13:44:55.446Z,7.27
2023-01-05T13:46:35.441Z,5.62
2023-01-05T13:49:34.652Z,8.63
2023-01-05T13:50:43.477Z,6.54
2023-01-05T13:51:54.965Z,9.28
2023-01-05T13:53:13.472Z,7.02
2023-01-05T13:54:19.864Z,7.87
2023-01-05T13:55:26.658Z,6.51
2023-01-05T13:56:32.114Z,7.73
2023-01-05T13:57:40.587Z,9.81
2023-01-05T13:58:46.039Z,10.29
2023-01-05T14:00:04.052Z,10.22
2023-01-05T14:00:57.204Z,10.05
2023-01-05T14:01:59.896Z,9.08
2023-01-05T14:03:05.750Z,9.28
2023-01-05T14:04:26.843Z,8.82
2023-01-05T14:05:35.501Z,11.11
2023-01-05T14:06:41.461Z,10.41
2023-01-05T14:07:44.349Z,10.34
2023-01-05T14:08:59.169Z,10.84
2023-01-05T14:10:01.825Z,11.87
2023-01-05T14:11:22.773Z,9.83
2023-01-05T14:12:49.561Z,9.93
2023-01-05T14:13:57.765Z,10.37
2023-01-05T14:15:06.414Z,9.38
2023-01-05T14:16:35.511Z,9.94
2023-01-05T14:17:52.181Z,9.27
2023-01-05T14:18:57.904Z,9.02
2023-01-05T14:19:59.924Z,7.38
2023-01-05T14:21:10.827Z,8.09
2023-01-05T14:22:22.580Z,9.96
2023-01-05T14:23:28.371Z,8.81
2023-01-05T14:24:41.443Z,8.92
2023-01-05T14:25:47.062Z,7.77
2023-01-05T14:27:09.775Z,8.26
2023-01-05T14:28:31.315Z,8.49
2023-01-05T14:29:56.594Z,8.56
2023-01-05T14:31:12.333Z,5.92
2023-01-05T14:32:21.084Z,6.41
2023-01-05T14:33:23.004Z,6.07
2023-01-05T14:34:27.370Z,6.52
2023-01-05T14:35:31.788Z,6.35
2023-01-05T14:36:37.859Z,6.03
2023-01-05T14:38:01.955Z,6.97
2023-01-05T14:39:23.151Z,6.56
2023-01-05T14:40:34.822Z,5.97
2023-01-05T14:41:37.812Z,8.37
2023-01-05T14:42:40.616Z,6.39
2023-01-05T14:43:42.867Z,6.79
2023-01-05T14:46:14.426Z,7.00
2023-01-05T14:47:35.348Z,6.45
2023-01-05T14:48:41.617Z,5.12
2023-01-05T14:49:55.101Z,5.90
2023-01-05T14:51:17.915Z,5.96
2023-01-05T14:52:24.122Z,6.26
2023-01-05T14:53:40.543Z,5.91
2023-01-05T14:54:46.942Z,7.72
2023-01-05T14:55:56.722Z,5.40
2023-01-05T14:57:22.370Z,5.33
2023-01-05T14:58:40.442Z,6.71
2023-01-05T14:59:44.875Z,6.78
2023-01-05T15:00:51.684Z,6.48
2023-01-05T15:02:02.848Z,6.29
2023-01-05T15:03:23.916Z,5.57
2023-01-05T15:04:38.971Z,6.96
2023-01-05T15:05:44.648Z,6.38
2023-01-05T15:08:12.752Z,7.10